Time;durP1;ratioP1;P1;durP2;ratioP2;P2;SDS_P1;SDS_P2;PMS_P1;PMS_P2;Temp;Humidity;BMP_temperature;BMP_pressure;BME280_temperature;BME280_humidity;BME280_pressure;Samples;Min_cycle;Max_cycle;Signal;HPM_P1;HPM_P2
2022/09/24 00:00:51;;;;;;;15.97;14.70;;;15.10;36.00;;;;;;5012001;28;20434;-45
2022/09/24 00:03:21;;;;;;;15.00;13.90;;;15.10;36.00;;;;;;5011492;28;20203;-45
2022/09/24 00:05:47;;;;;;;15.87;14.67;;;15.10;36.00;;;;;;5010939;28;20791;-45
2022/09/24 00:08:18;;;;;;;15.17;14.17;;;15.10;36.00;;;;;;5028930;28;20403;-47
2022/09/24 00:10:45;;;;;;;14.50;13.50;;;15.10;36.20;;;;;;5010223;28;20188;-46
2022/09/24 00:13:13;;;;;;;15.23;14.07;;;15.10;36.30;;;;;;5010965;28;20405;-40
2022/09/24 00:15:42;;;;;;;14.67;13.67;;;15.10;36.20;;;;;;5010306;28;20427;-41
2022/09/24 00:18:09;;;;;;;14.40;13.50;;;15.10;36.60;;;;;;5010405;28;20472;-45
2022/09/24 00:20:35;;;;;;;14.83;13.77;;;15.10;36.50;;;;;;5010483;28;20451;-41
2022/09/24 00:23:01;;;;;;;13.47;12.47;;;15.10;36.40;;;;;;5010953;28;20453;-42
2022/09/24 00:28:12;;;;;;;16.17;15.00;;;15.00;36.40;;;;;;5028628;28;20961;-41
2022/09/24 00:30:39;;;;;;;15.00;13.50;;;15.00;36.60;;;;;;5028269;28;20805;-40
2022/09/24 00:33:05;;;;;;;15.70;14.60;;;15.00;36.50;;;;;;5010499;28;20419;-42
2022/09/24 00:35:36;;;;;;;14.13;12.93;;;15.10;36.40;;;;;;5010856;28;20419;-41
2022/09/24 00:38:02;;;;;;;15.00;13.90;;;15.00;36.50;;;;;;5010419;28;20802;-43
2022/09/24 00:40:33;;;;;;;14.30;13.30;;;15.00;36.50;;;;;;5014440;28;20414;-42
2022/09/24 00:42:59;;;;;;;15.40;14.30;;;15.00;36.60;;;;;;5014672;28;20462;-40
2022/09/24 00:45:28;;;;;;;15.17;14.17;;;15.00;36.70;;;;;;5014200;28;20403;-43
2022/09/24 00:47:57;;;;;;;15.50;14.10;;;15.00;36.80;;;;;;5014766;28;20415;-40
2022/09/24 00:50:30;;;;;;;15.20;14.10;;;15.10;36.80;;;;;;5015111;28;20462;-43
2022/09/24 00:52:58;;;;;;;15.40;14.40;;;15.10;36.80;;;;;;5015823;28;20418;-52
2022/09/24 00:55:25;;;;;;;15.00;13.90;;;15.10;36.70;;;;;;5015774;28;20427;-49
2022/09/24 00:57:59;;;;;;;14.27;13.27;;;15.00;36.50;;;;;;5033571;28;20738;-52
2022/09/24 01:00:24;;;;;;;13.70;12.70;;;15.00;36.20;;;;;;5015855;28;20407;-53
2022/09/24 01:02:56;;;;;;;13.67;12.87;;;15.00;36.70;;;;;;5015491;28;20435;-49
2022/09/24 01:05:21;;;;;;;13.77;12.87;;;15.00;36.80;;;;;;5015864;28;20173;-51
2022/09/24 01:07:47;;;;;;;15.10;14.00;;;15.00;36.90;;;;;;5016154;28;20449;-48
2022/09/24 01:10:46;;;;;;;15.53;14.27;;;15.00;36.80;;;;;;5015626;28;20191;-50
2022/09/24 01:13:21;;;;;;;15.10;14.00;;;15.00;36.70;;;;;;5033107;28;20183;-50
2022/09/24 01:15:59;;;;;;;15.47;14.27;;;15.00;36.50;;;;;;5015504;28;20930;-50
2022/09/24 01:18:40;;;;;;;15.03;14.23;;;15.00;36.60;;;;;;5015583;28;20778;-49
2022/09/24 01:21:29;;;;;;;14.70;13.40;;;15.00;36.80;;;;;;5015156;28;20411;-47
2022/09/24 01:24:16;;;;;;;14.60;13.50;;;14.90;36.90;;;;;;5013544;28;20422;-43
2022/09/24 01:26:51;;;;;;;14.00;13.17;;;14.90;37.00;;;;;;5013328;28;20423;-41
2022/09/24 01:29:40;;;;;;;14.40;13.43;;;14.90;37.00;;;;;;5014098;28;20418;-41
2022/09/24 01:32:36;;;;;;;14.13;13.13;;;14.90;37.20;;;;;;5013658;28;20416;-41
2022/09/24 01:35:05;;;;;;;13.50;12.70;;;14.90;37.30;;;;;;5006810;28;20423;-43
2022/09/24 01:37:34;;;;;;;14.87;13.70;;;14.90;37.40;;;;;;5013328;28;20934;-45
2022/09/24 01:40:02;;;;;;;15.20;14.17;;;14.90;37.40;;;;;;5013365;28;20518;-42
2022/09/24 01:42:29;;;;;;;14.70;13.80;;;14.90;37.40;;;;;;5013411;28;20445;-42
2022/09/24 01:44:57;;;;;;;15.47;14.23;;;14.90;37.50;;;;;;5012029;28;20415;-41
2022/09/24 01:47:44;;;;;;;15.90;14.80;;;14.80;37.30;;;;;;5013747;28;20412;-41
2022/09/24 01:50:15;;;;;;;15.83;14.63;;;14.80;37.40;;;;;;5013695;28;21233;-46
2022/09/24 01:52:47;;;;;;;14.80;13.57;;;14.80;37.60;;;;;;5015235;28;20423;-46
2022/09/24 01:55:16;;;;;;;13.87;13.00;;;14.80;37.30;;;;;;5014691;28;20822;-45
2022/09/24 01:57:47;;;;;;;14.67;13.67;;;14.80;37.40;;;;;;5012903;28;20723;-48
2022/09/24 02:00:16;;;;;;;15.57;14.47;;;14.80;37.80;;;;;;5014748;28;20997;-51
2022/09/24 02:03:07;;;;;;;14.40;13.40;;;14.80;37.60;;;;;;5014637;28;20783;-50
2022/09/24 02:05:42;;;;;;;14.63;13.83;;;14.80;37.80;;;;;;5014427;28;20446;-48
2022/09/24 02:08:16;;;;;;;15.30;14.20;;;14.70;37.70;;;;;;5014665;28;20407;-50
2022/09/24 02:11:11;;;;;;;14.83;13.93;;;14.70;37.70;;;;;;5014266;28;20721;-51
2022/09/24 02:13:52;;;;;;;14.17;13.07;;;14.70;38.20;;;;;;5014596;28;20434;-49
2022/09/24 02:16:23;;;;;;;15.60;14.50;;;14.60;37.90;;;;;;5032350;28;20894;-48
2022/09/24 02:18:52;;;;;;;14.07;13.17;;;14.70;38.20;;;;;;5014187;28;20466;-48
2022/09/24 02:21:20;;;;;;;14.93;14.00;;;14.70;38.20;;;;;;5014070;28;20412;-47
2022/09/24 02:23:52;;;;;;;13.70;13.00;;;14.70;37.80;;;;;;5031792;28;20411;-47
2022/09/24 02:26:17;;;;;;;13.73;12.83;;;14.70;38.20;;;;;;5014163;28;20447;-48
2022/09/24 02:28:44;;;;;;;13.97;13.00;;;14.60;38.20;;;;;;5013977;28;20412;-50
2022/09/24 02:31:36;;;;;;;13.23;12.50;;;14.70;38.10;;;;;;5014221;28;20547;-48
2022/09/24 02:34:19;;;;;;;14.17;13.30;;;14.70;38.20;;;;;;5013047;28;20422;-46
2022/09/24 02:36:50;;;;;;;14.40;13.57;;;14.70;38.20;;;;;;5013872;28;20470;-51
2022/09/24 02:39:19;;;;;;;13.90;13.00;;;14.60;38.10;;;;;;5013596;28;20458;-50
2022/09/24 02:41:47;;;;;;;15.27;14.10;;;14.70;38.30;;;;;;5012729;28;20404;-43
2022/09/24 02:44:14;;;;;;;15.27;14.17;;;14.70;38.10;;;;;;5013467;28;20466;-49
2022/09/24 02:46:40;;;;;;;16.27;15.07;;;14.70;38.20;;;;;;5012607;28;20442;-45
2022/09/24 02:49:06;;;;;;;16.13;14.70;;;14.70;38.40;;;;;;5011912;28;20473;-41
2022/09/24 02:51:32;;;;;;;15.43;14.40;;;14.70;38.60;;;;;;5012687;28;20816;-42
2022/09/24 02:53:58;;;;;;;15.80;14.80;;;14.60;38.60;;;;;;5011994;28;20481;-43
2022/09/24 02:56:24;;;;;;;15.17;14.27;;;14.70;38.90;;;;;;5012983;28;20379;-47
2022/09/24 02:58:50;;;;;;;15.30;14.10;;;14.70;38.80;;;;;;5013072;28;20462;-46
2022/09/24 03:01:15;;;;;;;15.97;14.80;;;14.70;38.80;;;;;;5012276;28;20543;-48
2022/09/24 03:03:41;;;;;;;15.40;14.40;;;14.70;38.90;;;;;;5012907;28;20177;-49
2022/09/24 03:06:07;;;;;;;14.87;13.77;;;14.70;38.70;;;;;;5013311;28;20176;-49
2022/09/24 03:08:34;;;;;;;15.07;14.03;;;14.70;38.70;;;;;;5013387;28;20515;-46
2022/09/24 03:10:59;;;;;;;15.33;14.23;;;14.60;38.60;;;;;;5013205;28;20276;-48
2022/09/24 03:13:25;;;;;;;16.47;15.30;;;14.60;38.40;;;;;;5013395;28;20557;-48
2022/09/24 03:15:51;;;;;;;15.87;14.87;;;14.60;38.50;;;;;;5012703;28;20199;-50
2022/09/24 03:18:16;;;;;;;15.33;14.43;;;14.60;38.40;;;;;;5011223;28;20193;-41
2022/09/24 03:20:42;;;;;;;14.50;13.60;;;14.70;38.20;;;;;;5011752;28;20177;-42
2022/09/24 03:23:08;;;;;;;14.90;13.70;;;14.70;38.30;;;;;;5011720;28;20181;-40
2022/09/24 03:25:33;;;;;;;14.07;13.27;;;14.60;37.80;;;;;;5011484;28;20203;-43
2022/09/24 03:27:59;;;;;;;13.73;12.77;;;14.70;37.40;;;;;;5011553;28;20636;-43
2022/09/24 03:33:09;;;;;;;14.43;13.67;;;14.70;37.60;;;;;;5028491;28;20230;-40
2022/09/24 03:35:34;;;;;;;13.63;12.90;;;14.60;37.50;;;;;;5011188;28;20821;-43
2022/09/24 03:38:00;;;;;;;14.70;13.73;;;14.60;37.70;;;;;;5011383;28;20173;-41
2022/09/24 03:40:25;;;;;;;14.67;13.70;;;14.50;37.70;;;;;;5010632;28;20177;-45
2022/09/24 03:42:51;;;;;;;14.20;13.40;;;14.50;38.70;;;;;;5011551;28;20231;-50
2022/09/24 03:45:17;;;;;;;12.90;12.10;;;14.50;38.40;;;;;;5012800;28;20591;-50
2022/09/24 03:47:42;;;;;;;13.33;12.60;;;14.50;38.30;;;;;;5012785;28;20182;-50
2022/09/24 03:50:11;;;;;;;14.80;13.90;;;14.60;38.20;;;;;;5012755;28;20188;-46
2022/09/24 03:52:40;;;;;;;14.90;13.90;;;14.60;37.80;;;;;;5012119;28;20180;-50
2022/09/24 03:55:06;;;;;;;14.27;13.30;;;14.60;38.00;;;;;;5012902;28;20427;-48
2022/09/24 03:57:32;;;;;;;14.50;13.50;;;14.60;37.70;;;;;;5011925;28;20408;-50
2022/09/24 03:59:58;;;;;;;14.97;14.07;;;14.60;37.50;;;;;;5012791;28;20485;-47
2022/09/24 04:02:24;;;;;;;15.47;14.53;;;14.60;37.20;;;;;;5012828;28;20176;-48
2022/09/24 04:04:51;;;;;;;16.03;14.93;;;14.40;38.30;;;;;;5012687;28;20177;-48
2022/09/24 04:07:17;;;;;;;16.10;14.50;;;14.30;39.10;;;;;;5012786;28;20268;-46
2022/09/24 04:09:42;;;;;;;16.30;15.20;;;14.20;39.60;;;;;;5012132;28;20912;-51
2022/09/24 04:12:08;;;;;;;16.30;15.20;;;14.20;39.90;;;;;;5012616;28;20419;-50
2022/09/24 04:14:33;;;;;;;17.13;15.90;;;14.10;40.40;;;;;;5016132;28;20176;-53
2022/09/24 04:16:59;;;;;;;16.40;15.33;;;14.00;41.20;;;;;;5016760;28;20184;-49
2022/09/24 04:19:25;;;;;;;16.00;15.00;;;14.00;41.20;;;;;;5016248;28;20220;-48
2022/09/24 04:21:51;;;;;;;20.40;16.17;;;14.10;41.40;;;;;;5016615;28;20169;-50
2022/09/24 04:24:17;;;;;;;16.23;15.30;;;14.20;41.20;;;;;;5016635;28;20407;-50
2022/09/24 04:26:43;;;;;;;16.70;15.50;;;14.30;40.70;;;;;;5016060;28;20974;-51
2022/09/24 04:29:08;;;;;;;16.33;15.03;;;14.40;40.30;;;;;;5016179;28;20820;-53
2022/09/24 04:31:34;;;;;;;15.53;14.33;;;14.40;39.70;;;;;;5015835;28;20187;-50
2022/09/24 04:34:00;;;;;;;16.67;15.50;;;14.50;39.40;;;;;;5016120;28;20548;-51
2022/09/24 04:36:26;;;;;;;14.80;13.90;;;14.50;39.10;;;;;;5016214;28;20416;-48
2022/09/24 04:38:52;;;;;;;16.00;15.10;;;14.50;38.80;;;;;;5015978;28;20462;-48
2022/09/24 04:41:17;;;;;;;15.20;14.30;;;14.60;38.80;;;;;;5015850;28;20176;-50
2022/09/24 04:43:46;;;;;;;15.60;14.80;;;14.60;38.70;;;;;;5016006;28;20180;-47
2022/09/24 04:46:12;;;;;;;16.10;15.00;;;14.60;38.50;;;;;;5015819;28;20176;-49
2022/09/24 04:48:38;;;;;;;17.30;16.10;;;14.60;38.50;;;;;;5033603;28;20426;-49
2022/09/24 04:51:06;;;;;;;15.33;14.43;;;14.60;38.40;;;;;;5015260;28;20423;-51
2022/09/24 04:53:36;;;;;;;15.10;14.00;;;14.60;38.70;;;;;;5015191;28;20523;-41
2022/09/24 04:56:03;;;;;;;15.60;14.60;;;14.60;38.70;;;;;;5014061;28;20430;-46
2022/09/24 04:58:29;;;;;;;15.87;14.77;;;14.60;38.80;;;;;;5013918;28;20479;-40
2022/09/24 05:00:55;;;;;;;15.57;14.37;;;14.60;39.00;;;;;;5013287;28;20438;-40
2022/09/24 05:03:21;;;;;;;16.00;15.10;;;14.60;39.40;;;;;;5014090;28;20418;-41
2022/09/24 05:05:46;;;;;;;14.90;14.00;;;14.60;39.70;;;;;;5013555;28;20173;-41
2022/09/24 05:08:12;;;;;;;16.23;14.93;;;14.60;39.40;;;;;;5014222;28;20259;-40
2022/09/24 05:10:39;;;;;;;16.50;15.40;;;14.60;39.40;;;;;;5013530;28;20234;-41
2022/09/24 05:13:05;;;;;;;15.90;14.60;;;14.60;39.10;;;;;;5013079;28;20416;-41
2022/09/24 05:15:31;;;;;;;15.93;14.80;;;14.60;39.00;;;;;;5013721;28;20981;-43
2022/09/24 05:17:57;;;;;;;15.47;14.53;;;14.60;38.70;;;;;;5013528;28;20222;-41
2022/09/24 05:20:23;;;;;;;15.77;14.77;;;14.60;38.50;;;;;;5012646;28;20545;-41
2022/09/24 05:22:49;;;;;;;15.03;14.23;;;14.70;38.70;;;;;;5013378;28;20413;-42
2022/09/24 05:25:17;;;;;;;16.13;15.13;;;14.70;38.50;;;;;;5012338;28;20819;-41
2022/09/24 05:27:49;;;;;;;15.23;14.23;;;14.70;38.40;;;;;;5013491;28;20411;-40
2022/09/24 05:30:16;;;;;;;16.93;15.70;;;14.70;38.20;;;;;;5013469;28;20427;-41
2022/09/24 05:32:42;;;;;;;14.93;14.07;;;14.70;38.40;;;;;;5013565;28;20946;-41
2022/09/24 05:35:08;;;;;;;15.37;14.47;;;14.70;38.50;;;;;;5013796;28;20423;-41
2022/09/24 05:37:36;;;;;;;15.20;14.30;;;14.70;38.30;;;;;;5030657;28;20516;-41
2022/09/24 05:42:47;;;;;;;15.83;14.83;;;14.70;38.30;;;;;;5031520;28;20410;-41
2022/09/24 05:45:16;;;;;;;15.53;14.60;;;14.70;38.50;;;;;;5012403;28;20408;-40
2022/09/24 05:47:44;;;;;;;15.40;14.50;;;14.70;38.80;;;;;;5013389;28;20183;-42
2022/09/24 05:50:10;;;;;;;15.97;14.67;;;14.70;38.70;;;;;;5013012;28;20455;-42
2022/09/24 05:52:36;;;;;;;15.23;14.27;;;14.70;38.70;;;;;;5013248;28;20931;-40
2022/09/24 05:55:02;;;;;;;15.50;14.50;;;14.70;38.90;;;;;;5013882;28;20416;-44
2022/09/24 05:57:28;;;;;;;16.63;15.07;;;14.70;39.00;;;;;;5013377;28;20424;-43
2022/09/24 05:59:53;;;;;;;16.67;15.47;;;14.80;39.40;;;;;;5012876;28;20212;-45
2022/09/24 06:02:19;;;;;;;16.67;15.37;;;14.70;39.10;;;;;;5013387;28;20176;-42
2022/09/24 06:04:45;;;;;;;17.63;16.23;;;14.80;39.20;;;;;;5013054;28;20241;-40
2022/09/24 06:07:10;;;;;;;17.37;16.10;;;14.70;39.20;;;;;;5012430;28;20258;-42
2022/09/24 06:09:36;;;;;;;17.07;15.47;;;14.70;39.30;;;;;;5030110;28;20177;-45
2022/09/24 06:12:02;;;;;;;16.53;15.23;;;14.70;39.40;;;;;;5030691;28;20200;-41
2022/09/24 06:14:27;;;;;;;16.93;15.73;;;14.70;39.40;;;;;;5012307;28;20668;-41
2022/09/24 06:16:53;;;;;;;18.53;17.00;;;14.70;39.20;;;;;;5012274;28;20185;-42
2022/09/24 06:19:19;;;;;;;17.53;16.17;;;14.60;40.30;;;;;;5011844;28;20299;-42
2022/09/24 06:21:44;;;;;;;15.87;14.90;;;14.50;39.80;;;;;;5012498;28;20173;-41
2022/09/24 06:24:10;;;;;;;18.00;16.47;;;14.50;39.70;;;;;;5012783;28;20272;-44
2022/09/24 06:26:36;;;;;;;16.90;15.80;;;14.50;39.80;;;;;;5012324;28;20227;-43
2022/09/24 06:29:02;;;;;;;16.80;15.80;;;14.40;39.80;;;;;;5012537;28;20177;-48
2022/09/24 06:31:28;;;;;;;20.23;15.70;;;14.40;39.90;;;;;;5011823;28;20441;-43
2022/09/24 06:33:54;;;;;;;16.83;15.63;;;14.50;40.20;;;;;;5012378;28;20185;-47
2022/09/24 06:36:19;;;;;;;17.73;16.27;;;14.50;40.00;;;;;;5011884;28;20633;-43
2022/09/24 06:38:49;;;;;;;16.87;15.60;;;14.60;39.90;;;;;;5011857;28;20196;-43
2022/09/24 06:41:15;;;;;;;16.40;15.30;;;14.60;39.40;;;;;;5012087;28;20168;-42
2022/09/24 06:43:41;;;;;;;17.60;15.60;;;14.70;39.00;;;;;;5012455;28;21142;-42
2022/09/24 06:46:06;;;;;;;16.10;14.90;;;14.70;39.20;;;;;;5012310;28;20540;-43
2022/09/24 06:48:32;;;;;;;16.33;15.17;;;14.70;39.40;;;;;;5011651;28;20219;-46
2022/09/24 06:50:57;;;;;;;16.00;14.90;;;14.80;39.20;;;;;;5012581;28;20181;-42
2022/09/24 06:53:23;;;;;;;17.03;15.90;;;14.80;39.00;;;;;;5011679;28;20180;-42
2022/09/24 06:55:49;;;;;;;16.40;15.00;;;14.80;39.70;;;;;;5011779;28;20176;-43
2022/09/24 06:58:19;;;;;;;16.97;15.77;;;14.90;39.10;;;;;;5012429;28;20476;-41
2022/09/24 07:00:53;;;;;;;16.70;15.53;;;14.90;39.10;;;;;;5011639;28;20920;-44
2022/09/24 07:03:20;;;;;;;17.53;16.20;;;14.90;38.50;;;;;;5012032;28;20892;-41
2022/09/24 07:05:45;;;;;;;15.37;14.17;;;14.90;38.60;;;;;;5011359;28;20420;-40
2022/09/24 07:08:11;;;;;;;16.27;15.37;;;15.00;38.80;;;;;;5011466;28;20423;-41
2022/09/24 07:10:41;;;;;;;16.67;15.57;;;15.00;38.70;;;;;;5011475;28;20175;-43
2022/09/24 07:13:06;;;;;;;16.33;15.00;;;15.00;38.70;;;;;;5012349;28;20180;-46
2022/09/24 07:15:32;;;;;;;15.23;14.20;;;15.10;38.80;;;;;;5011175;28;20416;-43
2022/09/24 07:17:58;;;;;;;16.00;14.77;;;15.00;38.50;;;;;;5011279;28;20222;-45
2022/09/24 07:20:27;;;;;;;15.83;14.57;;;15.00;38.50;;;;;;5011699;28;20699;-42
2022/09/24 07:22:53;;;;;;;17.03;15.90;;;15.00;38.70;;;;;;5010698;28;20173;-42
2022/09/24 07:25:19;;;;;;;16.40;15.30;;;15.10;38.70;;;;;;5010598;28;20435;-40
2022/09/24 07:27:44;;;;;;;17.60;16.30;;;15.10;38.60;;;;;;5011001;28;20418;-41
2022/09/24 07:30:11;;;;;;;16.37;15.33;;;15.10;38.40;;;;;;5011109;28;20181;-48
2022/09/24 07:32:37;;;;;;;17.93;16.67;;;15.20;38.70;;;;;;5011613;28;20183;-41
2022/09/24 07:35:03;;;;;;;16.53;15.10;;;15.10;38.70;;;;;;5011028;28;20407;-42
2022/09/24 07:37:31;;;;;;;16.17;15.27;;;15.20;38.60;;;;;;5028123;28;20173;-40
2022/09/24 07:39:57;;;;;;;15.90;14.90;;;15.20;38.50;;;;;;5010631;28;20455;-45
2022/09/24 07:42:24;;;;;;;15.60;14.60;;;15.20;38.30;;;;;;5010835;28;20411;-42
2022/09/24 07:44:50;;;;;;;16.20;15.13;;;15.20;38.50;;;;;;5011367;28;20415;-50
2022/09/24 07:47:15;;;;;;;16.13;14.87;;;15.30;38.40;;;;;;5011953;28;20403;-47
2022/09/24 07:49:41;;;;;;;14.60;13.70;;;15.30;38.30;;;;;;5012964;28;20514;-48
2022/09/24 07:52:07;;;;;;;16.80;15.60;;;15.30;38.50;;;;;;5012332;28;20268;-49
2022/09/24 07:54:33;;;;;;;16.60;15.60;;;15.30;38.40;;;;;;5012009;28;20437;-45
2022/09/24 07:57:00;;;;;;;17.23;16.03;;;15.30;38.10;;;;;;5011184;28;20208;-43
2022/09/24 07:59:26;;;;;;;16.93;15.70;;;15.30;38.00;;;;;;5011002;28;20254;-40
2022/09/24 08:01:51;;;;;;;16.37;15.20;;;15.40;37.90;;;;;;5010895;28;20775;-41
2022/09/24 08:04:17;;;;;;;18.23;16.40;;;15.30;37.60;;;;;;5011753;28;20227;-48
2022/09/24 08:06:42;;;;;;;15.40;14.60;;;15.30;38.30;;;;;;5012414;28;20215;-47
2022/09/24 08:09:08;;;;;;;16.03;15.13;;;15.40;38.80;;;;;;5012581;28;20168;-47
2022/09/24 08:11:34;;;;;;;17.47;16.07;;;15.40;38.70;;;;;;5012503;28;20226;-48
2022/09/24 08:13:59;;;;;;;16.40;15.40;;;15.40;38.40;;;;;;5012595;28;20664;-47
2022/09/24 08:16:25;;;;;;;16.67;15.20;;;15.40;38.60;;;;;;5012176;28;20520;-47
2022/09/24 08:18:52;;;;;;;16.40;15.27;;;15.40;38.20;;;;;;5012300;28;20286;-50
2022/09/24 08:21:18;;;;;;;18.57;16.80;;;15.40;38.80;;;;;;5012445;28;20423;-46
2022/09/24 08:23:44;;;;;;;16.80;15.47;;;15.40;38.50;;;;;;5011907;28;20416;-46
2022/09/24 08:26:13;;;;;;;17.93;16.73;;;15.30;38.90;;;;;;5012430;28;20192;-49
2022/09/24 08:28:40;;;;;;;17.20;15.57;;;15.20;39.70;;;;;;5012094;28;20281;-50
2022/09/24 08:31:10;;;;;;;17.10;15.60;;;15.20;39.80;;;;;;5012121;28;20415;-52
2022/09/24 08:33:36;;;;;;;17.33;16.13;;;15.30;39.70;;;;;;5029708;28;20400;-49
2022/09/24 08:36:05;;;;;;;17.90;16.67;;;15.40;39.60;;;;;;5012313;28;20455;-47
2022/09/24 08:38:31;;;;;;;17.10;16.00;;;15.40;40.30;;;;;;5011743;28;20456;-46
2022/09/24 08:41:11;;;;;;;17.67;16.37;;;15.30;39.90;;;;;;5012011;28;20774;-47
2022/09/24 08:44:10;;;;;;;17.13;15.73;;;15.30;40.30;;;;;;5012036;28;20175;-51
2022/09/24 08:49:36;;;;;;;16.67;15.47;;;15.30;40.20;;;;;;5030072;28;20469;-46
2022/09/24 08:52:20;;;;;;;16.30;15.13;;;15.30;40.50;;;;;;5011926;28;20427;-48
2022/09/24 08:54:49;;;;;;;17.67;16.40;;;15.30;41.30;;;;;;5044874;28;20831;-50
2022/09/24 08:57:17;;;;;;;17.97;16.63;;;15.50;40.70;;;;;;5029425;28;20819;-47
2022/09/24 08:59:48;;;;;;;19.17;17.47;;;15.50;40.50;;;;;;5012522;28;20487;-50
2022/09/24 09:02:40;;;;;;;16.17;15.23;;;15.60;40.80;;;;;;5015581;28;20410;-50
2022/09/24 09:05:18;;;;;;;17.53;16.40;;;15.60;40.50;;;;;;5015585;28;20415;-51
2022/09/24 09:08:01;;;;;;;17.07;15.70;;;15.60;40.40;;;;;;5015696;28;20509;-49
2022/09/24 09:10:37;;;;;;;16.00;15.07;;;15.70;40.60;;;;;;5015292;28;20430;-49
2022/09/24 09:13:29;;;;;;;16.50;15.50;;;15.80;40.40;;;;;;5015404;28;20978;-50
2022/09/24 09:16:20;;;;;;;14.37;13.50;;;15.80;40.10;;;;;;5014723;28;20410;-41
2022/09/24 09:18:48;;;;;;;14.07;13.37;;;15.90;40.20;;;;;;5013875;28;20842;-40
2022/09/24 09:21:22;;;;;;;14.20;13.37;;;16.00;39.90;;;;;;5013055;28;20470;-43
2022/09/24 09:23:50;;;;;;;13.97;13.17;;;16.00;39.90;;;;;;5013559;28;20670;-39
2022/09/24 09:26:17;;;;;;;12.60;11.97;;;16.00;39.90;;;;;;5013998;28;20775;-40
2022/09/24 09:28:45;;;;;;;12.80;12.20;;;16.00;39.90;;;;;;5013153;28;20416;-39
2022/09/24 09:31:28;;;;;;;12.00;11.50;;;16.10;40.10;;;;;;5012798;28;20423;-43
2022/09/24 09:34:06;;;;;;;12.63;11.70;;;16.10;40.40;;;;;;5013211;28;20915;-43
2022/09/24 09:36:58;;;;;;;11.60;11.00;;;16.10;40.90;;;;;;5013416;28;20532;-45
2022/09/24 09:40:08;;;;;;;10.70;10.10;;;16.10;41.10;;;;;;5046103;28;20915;-41
2022/09/24 09:42:36;;;;;;;11.00;10.43;;;16.10;41.50;;;;;;4976636;28;20419;-43
2022/09/24 09:45:18;;;;;;;11.87;11.20;;;16.10;41.70;;;;;;5012622;28;20912;-39
2022/09/24 09:47:53;;;;;;;11.97;11.37;;;16.00;42.20;;;;;;5013680;28;21116;-41
2022/09/24 09:50:43;;;;;;;11.87;11.27;;;16.00;42.70;;;;;;5012478;28;20510;-45
2022/09/24 09:53:24;;;;;;;11.80;11.30;;;15.90;43.30;;;;;;5012883;28;20415;-43
2022/09/24 09:56:02;;;;;;;10.10;9.70;;;15.90;44.10;;;;;;5030997;28;20404;-42
2022/09/24 09:58:31;;;;;;;10.07;9.67;;;15.90;45.60;;;;;;5012695;28;20981;-44
2022/09/24 10:01:16;;;;;;;10.13;9.43;;;15.90;47.20;;;;;;5012577;28;20412;-41
2022/09/24 10:03:50;;;;;;;10.20;9.70;;;15.90;47.60;;;;;;5012024;28;20500;-42
2022/09/24 10:06:25;;;;;;;10.67;10.07;;;15.80;47.70;;;;;;5045772;28;20407;-40
2022/09/24 10:08:51;;;;;;;10.17;9.70;;;15.80;48.20;;;;;;5012617;28;20510;-42
2022/09/24 10:11:17;;;;;;;10.83;10.23;;;15.90;49.50;;;;;;5045239;28;20511;-43
2022/09/24 10:13:44;;;;;;;10.33;9.90;;;15.80;49.80;;;;;;5012855;28;20611;-45
2022/09/24 10:16:12;;;;;;;11.07;10.47;;;15.80;50.00;;;;;;5046164;28;20442;-44
2022/09/24 10:18:45;;;;;;;11.27;10.57;;;15.80;49.90;;;;;;5012442;28;20466;-40
2022/09/24 10:21:33;;;;;;;10.87;10.23;;;15.70;49.70;;;;;;5012734;28;20412;-41
2022/09/24 10:24:02;;;;;;;10.00;9.47;;;15.70;50.80;;;;;;5011943;28;20416;-43
2022/09/24 10:26:39;;;;;;;10.03;9.60;;;15.70;50.90;;;;;;5012026;28;20442;-44
2022/09/24 10:31:55;;;;;;;10.60;10.10;;;15.70;51.50;;;;;;5029614;28;20457;-41
2022/09/24 10:34:25;;;;;;;10.40;10.00;;;15.70;51.20;;;;;;4996314;28;20475;-40
2022/09/24 10:37:23;;;;;;;9.47;8.97;;;15.80;51.80;;;;;;5011987;28;20423;-41
2022/09/24 10:40:01;;;;;;;9.57;9.17;;;15.90;50.40;;;;;;4979967;28;21064;-49
2022/09/24 10:42:29;;;;;;;10.80;10.10;;;15.90;50.00;;;;;;5031202;28;20416;-50
2022/09/24 10:44:57;;;;;;;10.60;10.00;;;15.90;51.00;;;;;;5013884;28;20430;-47
2022/09/24 10:47:29;;;;;;;10.33;9.87;;;15.90;50.40;;;;;;5013601;28;20431;-46
2022/09/24 10:50:30;;;;;;;10.77;9.97;;;15.90;50.50;;;;;;5031424;28;20798;-52
2022/09/24 10:53:17;;;;;;;10.40;9.80;;;15.90;51.00;;;;;;5010307;28;20477;-49
2022/09/24 10:56:03;;;;;;;9.83;9.33;;;16.00;51.10;;;;;;5013255;28;20950;-51
2022/09/24 10:58:52;;;;;;;9.30;8.90;;;16.00;51.30;;;;;;5013345;28;20421;-49
2022/09/24 11:01:44;;;;;;;9.37;8.87;;;16.00;51.40;;;;;;5046352;28;20427;-49
2022/09/24 11:04:19;;;;;;;10.20;9.70;;;16.00;51.90;;;;;;5046578;28;20430;-48
2022/09/24 11:07:22;;;;;;;10.77;10.17;;;16.00;51.10;;;;;;5046115;28;20788;-50
2022/09/24 11:10:22;;;;;;;9.27;8.67;;;16.00;50.90;;;;;;5046377;28;20426;-49
2022/09/24 11:13:00;;;;;;;9.80;9.20;;;16.00;51.10;;;;;;5031029;28;20514;-50
2022/09/24 11:15:28;;;;;;;10.47;9.67;;;16.10;50.90;;;;;;5045501;28;20802;-43
2022/09/24 11:18:33;;;;;;;10.03;9.53;;;16.10;51.50;;;;;;5044554;28;20946;-48
2022/09/24 11:21:11;;;;;;;9.70;9.20;;;16.10;51.90;;;;;;4980900;28;20511;-47
2022/09/24 11:24:00;;;;;;;10.57;10.07;;;16.10;51.40;;;;;;5043076;28;20466;-41
2022/09/24 11:26:28;;;;;;;10.87;10.27;;;16.10;50.50;;;;;;5010656;28;20967;-46
2022/09/24 11:29:05;;;;;;;10.30;9.70;;;16.10;50.30;;;;;;5029039;28;20399;-42
2022/09/24 11:31:37;;;;;;;9.93;9.43;;;16.10;50.70;;;;;;5043957;28;20439;-44
2022/09/24 11:34:21;;;;;;;9.50;9.10;;;16.10;50.50;;;;;;5043715;28;20965;-41
2022/09/24 11:37:05;;;;;;;9.90;9.40;;;16.10;50.20;;;;;;5011159;28;20944;-46
2022/09/24 11:39:40;;;;;;;10.33;9.93;;;16.00;50.50;;;;;;5010812;28;20463;-41
2022/09/24 11:42:28;;;;;;;9.77;9.37;;;16.00;50.40;;;;;;5044259;28;20788;-40
2022/09/24 11:45:03;;;;;;;9.03;8.63;;;16.00;49.40;;;;;;5010953;28;20440;-45
2022/09/24 11:47:47;;;;;;;10.53;10.03;;;15.90;49.60;;;;;;5043960;28;20457;-41
2022/09/24 11:50:48;;;;;;;12.10;11.40;;;15.90;50.20;;;;;;5010936;28;20442;-42
2022/09/24 11:53:46;;;;;;;10.00;9.50;;;15.90;50.50;;;;;;5045632;28;20412;-52
2022/09/24 11:56:32;;;;;;;10.50;9.93;;;15.90;51.10;;;;;;5045779;28;20415;-48
2022/09/24 11:59:10;;;;;;;10.60;10.00;;;15.90;51.50;;;;;;5012684;28;20459;-48
2022/09/24 12:01:39;;;;;;;9.27;8.83;;;15.90;52.30;;;;;;5012545;28;20422;-51
2022/09/24 12:04:16;;;;;;;9.60;9.10;;;16.00;51.80;;;;;;5012638;28;20415;-50
2022/09/24 12:06:53;;;;;;;10.23;9.67;;;16.00;52.20;;;;;;5012031;28;20442;-52
2022/09/24 12:09:35;;;;;;;10.23;9.63;;;16.00;52.20;;;;;;5012227;28;20426;-47
2022/09/24 12:12:33;;;;;;;10.63;9.87;;;16.10;52.50;;;;;;5012652;28;20509;-49
2022/09/24 12:15:18;;;;;;;9.80;9.20;;;16.10;52.30;;;;;;5007072;28;20415;-50
2022/09/24 12:18:07;;;;;;;9.73;9.13;;;16.10;52.80;;;;;;5012513;28;20787;-47
2022/09/24 12:20:51;;;;;;;9.53;9.10;;;16.10;53.00;;;;;;5012386;28;20463;-52
2022/09/24 12:23:26;;;;;;;9.70;8.70;;;16.10;53.10;;;;;;5012592;28;20407;-49
2022/09/24 12:25:54;;;;;;;9.77;9.20;;;16.20;53.20;;;;;;5011851;28;20491;-52
2022/09/24 12:34:23;;;;;;;9.70;9.20;;;16.30;55.10;;;;;;5031959;28;20815;-46
2022/09/24 12:36:56;;;;;;;10.73;9.67;;;16.30;54.90;;;;;;5049678;28;20756;-48
2022/09/24 12:39:29;;;;;;;9.50;9.07;;;16.30;54.60;;;;;;5016369;28;20974;-50
2022/09/24 12:42:03;;;;;;;10.00;9.50;;;16.40;54.50;;;;;;5015281;28;20457;-40
2022/09/24 12:44:36;;;;;;;10.67;9.90;;;16.40;54.70;;;;;;5014832;28;20415;-43
2022/09/24 12:47:01;;;;;;;9.73;9.10;;;16.40;54.70;;;;;;5014513;28;20415;-41
2022/09/24 12:49:36;;;;;;;10.87;10.23;;;16.40;54.10;;;;;;5046855;28;20438;-41
2022/09/24 12:52:26;;;;;;;9.80;9.30;;;16.40;54.30;;;;;;5014224;28;20175;-40
2022/09/24 12:55:01;;;;;;;10.30;9.60;;;16.40;55.00;;;;;;5049200;28;20769;-50
2022/09/24 12:57:39;;;;;;;9.53;9.03;;;16.50;55.50;;;;;;5016255;28;20454;-53
2022/09/24 13:00:33;;;;;;;9.87;9.37;;;16.40;56.20;;;;;;5016267;28;20852;-47
2022/09/24 13:03:00;;;;;;;10.00;9.40;;;16.40;56.60;;;;;;5015818;28;20411;-50
2022/09/24 13:05:31;;;;;;;9.50;9.07;;;16.50;57.10;;;;;;5016228;28;20918;-48
2022/09/24 13:08:18;;;;;;;11.03;10.33;;;16.50;56.50;;;;;;5015602;28;20414;-49
2022/09/24 13:10:59;;;;;;;10.17;9.67;;;16.50;56.20;;;;;;5003195;28;20415;-47
2022/09/24 13:13:31;;;;;;;11.40;10.80;;;16.50;55.40;;;;;;5015314;28;20905;-49